sensor_id;sensor_type;location;lat;lon;timestamp;P1;durP1;ratioP1;P2;durP2;ratioP2
38779;SDS011;29273;49.962;9.768;2023-06-05T00:00:53;0.88;;;0.70;;
38779;SDS011;29273;49.962;9.768;2023-06-05T00:03:19;0.65;;;0.60;;
38779;SDS011;29273;49.962;9.768;2023-06-05T00:05:45;0.63;;;0.60;;
38779;SDS011;29273;49.962;9.768;2023-06-05T00:08:10;0.60;;;0.50;;
38779;SDS011;29273;49.962;9.768;2023-06-05T00:10:36;0.90;;;0.60;;
38779;SDS011;29273;49.962;9.768;2023-06-05T00:13:02;0.68;;;0.68;;
38779;SDS011;29273;49.962;9.768;2023-06-05T00:15:27;0.60;;;0.60;;
38779;SDS011;29273;49.962;9.768;2023-06-05T00:17:53;0.70;;;0.70;;
38779;SDS011;29273;49.962;9.768;2023-06-05T00:20:20;0.75;;;0.70;;
38779;SDS011;29273;49.962;9.768;2023-06-05T00:22:45;0.75;;;0.60;;
38779;SDS011;29273;49.962;9.768;2023-06-05T00:25:12;0.50;;;0.47;;
38779;SDS011;29273;49.962;9.768;2023-06-05T00:27:38;0.90;;;0.57;;
38779;SDS011;29273;49.962;9.768;2023-06-05T00:30:06;0.70;;;0.60;;
38779;SDS011;29273;49.962;9.768;2023-06-05T00:32:35;0.75;;;0.60;;
38779;SDS011;29273;49.962;9.768;2023-06-05T00:35:01;1.17;;;0.70;;
38779;SDS011;29273;49.962;9.768;2023-06-05T00:37:27;0.70;;;0.70;;
38779;SDS011;29273;49.962;9.768;2023-06-05T00:39:53;0.82;;;0.60;;
38779;SDS011;29273;49.962;9.768;2023-06-05T00:42:18;1.00;;;0.63;;
38779;SDS011;29273;49.962;9.768;2023-06-05T00:44:44;0.70;;;0.70;;
38779;SDS011;29273;49.962;9.768;2023-06-05T00:47:09;1.52;;;0.70;;
38779;SDS011;29273;49.962;9.768;2023-06-05T00:49:36;1.90;;;0.68;;
38779;SDS011;29273;49.962;9.768;2023-06-05T00:52:02;0.65;;;0.60;;
38779;SDS011;29273;49.962;9.768;2023-06-05T00:54:28;0.65;;;0.65;;
38779;SDS011;29273;49.962;9.768;2023-06-05T00:56:55;1.52;;;0.80;;
38779;SDS011;29273;49.962;9.768;2023-06-05T00:59:21;1.20;;;0.60;;
38779;SDS011;29273;49.962;9.768;2023-06-05T01:01:47;1.17;;;0.90;;
38779;SDS011;29273;49.962;9.768;2023-06-05T01:04:13;0.70;;;0.60;;
38779;SDS011;29273;49.962;9.768;2023-06-05T01:06:38;1.02;;;0.65;;
38779;SDS011;29273;49.962;9.768;2023-06-05T01:09:06;1.23;;;0.70;;
38779;SDS011;29273;49.962;9.768;2023-06-05T01:11:52;1.10;;;0.80;;
38779;SDS011;29273;49.962;9.768;2023-06-05T01:14:33;1.00;;;0.70;;
38779;SDS011;29273;49.962;9.768;2023-06-05T01:17:01;0.77;;;0.63;;
38779;SDS011;29273;49.962;9.768;2023-06-05T01:19:27;1.00;;;0.73;;
38779;SDS011;29273;49.962;9.768;2023-06-05T01:22:00;1.10;;;0.80;;
38779;SDS011;29273;49.962;9.768;2023-06-05T01:24:26;0.77;;;0.70;;
38779;SDS011;29273;49.962;9.768;2023-06-05T01:29:26;1.08;;;0.70;;
38779;SDS011;29273;49.962;9.768;2023-06-05T01:31:58;0.90;;;0.70;;
38779;SDS011;29273;49.962;9.768;2023-06-05T01:34:31;0.80;;;0.60;;
38779;SDS011;29273;49.962;9.768;2023-06-05T01:36:58;1.15;;;0.70;;
38779;SDS011;29273;49.962;9.768;2023-06-05T01:39:24;1.17;;;0.60;;
38779;SDS011;29273;49.962;9.768;2023-06-05T01:41:52;0.70;;;0.60;;
38779;SDS011;29273;49.962;9.768;2023-06-05T01:44:20;1.08;;;0.80;;
38779;SDS011;29273;49.962;9.768;2023-06-05T01:46:46;0.77;;;0.70;;
38779;SDS011;29273;49.962;9.768;2023-06-05T01:49:12;1.25;;;0.85;;
38779;SDS011;29273;49.962;9.768;2023-06-05T01:51:38;2.50;;;0.50;;
38779;SDS011;29273;49.962;9.768;2023-06-05T01:54:04;0.77;;;0.73;;
38779;SDS011;29273;49.962;9.768;2023-06-05T01:56:30;0.77;;;0.77;;
38779;SDS011;29273;49.962;9.768;2023-06-05T01:58:57;1.30;;;0.70;;
38779;SDS011;29273;49.962;9.768;2023-06-05T02:01:23;1.17;;;0.80;;
38779;SDS011;29273;49.962;9.768;2023-06-05T02:03:49;0.77;;;0.60;;
38779;SDS011;29273;49.962;9.768;2023-06-05T02:06:16;0.77;;;0.63;;
38779;SDS011;29273;49.962;9.768;2023-06-05T02:08:42;0.57;;;0.50;;
38779;SDS011;29273;49.962;9.768;2023-06-05T02:11:08;0.77;;;0.70;;
38779;SDS011;29273;49.962;9.768;2023-06-05T02:13:38;0.80;;;0.73;;
38779;SDS011;29273;49.962;9.768;2023-06-05T02:16:07;0.80;;;0.70;;
38779;SDS011;29273;49.962;9.768;2023-06-05T02:18:34;1.00;;;0.70;;
38779;SDS011;29273;49.962;9.768;2023-06-05T02:21:02;0.98;;;0.70;;
38779;SDS011;29273;49.962;9.768;2023-06-05T02:23:28;0.85;;;0.70;;
38779;SDS011;29273;49.962;9.768;2023-06-05T02:25:54;1.20;;;0.88;;
38779;SDS011;29273;49.962;9.768;2023-06-05T02:28:20;1.20;;;0.90;;
38779;SDS011;29273;49.962;9.768;2023-06-05T02:30:46;1.10;;;0.70;;
38779;SDS011;29273;49.962;9.768;2023-06-05T02:33:13;0.85;;;0.70;;
38779;SDS011;29273;49.962;9.768;2023-06-05T02:35:40;0.75;;;0.70;;
38779;SDS011;29273;49.962;9.768;2023-06-05T02:38:09;0.82;;;0.70;;
38779;SDS011;29273;49.962;9.768;2023-06-05T02:40:38;0.85;;;0.70;;
38779;SDS011;29273;49.962;9.768;2023-06-05T02:43:03;0.70;;;0.65;;
38779;SDS011;29273;49.962;9.768;2023-06-05T02:45:33;0.70;;;0.68;;
38779;SDS011;29273;49.962;9.768;2023-06-05T02:47:59;1.17;;;0.80;;
38779;SDS011;29273;49.962;9.768;2023-06-05T02:50:24;1.13;;;0.90;;
38779;SDS011;29273;49.962;9.768;2023-06-05T02:52:52;0.73;;;0.65;;
38779;SDS011;29273;49.962;9.768;2023-06-05T02:55:24;0.93;;;0.85;;
38779;SDS011;29273;49.962;9.768;2023-06-05T02:57:55;1.15;;;0.77;;
38779;SDS011;29273;49.962;9.768;2023-06-05T03:00:29;1.23;;;0.80;;
38779;SDS011;29273;49.962;9.768;2023-06-05T03:02:56;0.98;;;0.73;;
38779;SDS011;29273;49.962;9.768;2023-06-05T03:05:28;1.27;;;0.70;;
38779;SDS011;29273;49.962;9.768;2023-06-05T03:07:59;0.90;;;0.80;;
38779;SDS011;29273;49.962;9.768;2023-06-05T03:10:26;0.90;;;0.70;;
38779;SDS011;29273;49.962;9.768;2023-06-05T03:12:53;1.23;;;0.60;;
38779;SDS011;29273;49.962;9.768;2023-06-05T03:15:19;1.13;;;0.73;;
38779;SDS011;29273;49.962;9.768;2023-06-05T03:17:46;0.73;;;0.70;;
38779;SDS011;29273;49.962;9.768;2023-06-05T03:20:12;1.00;;;0.77;;
38779;SDS011;29273;49.962;9.768;2023-06-05T03:22:38;1.13;;;0.85;;
38779;SDS011;29273;49.962;9.768;2023-06-05T03:25:07;1.10;;;0.80;;
38779;SDS011;29273;49.962;9.768;2023-06-05T03:27:34;1.58;;;0.90;;
38779;SDS011;29273;49.962;9.768;2023-06-05T03:29:59;0.77;;;0.77;;
38779;SDS011;29273;49.962;9.768;2023-06-05T03:32:26;0.90;;;0.80;;
38779;SDS011;29273;49.962;9.768;2023-06-05T03:34:51;1.23;;;0.90;;
38779;SDS011;29273;49.962;9.768;2023-06-05T03:37:18;1.30;;;0.70;;
38779;SDS011;29273;49.962;9.768;2023-06-05T03:39:46;1.27;;;0.90;;
38779;SDS011;29273;49.962;9.768;2023-06-05T03:42:11;1.55;;;0.70;;
38779;SDS011;29273;49.962;9.768;2023-06-05T03:44:37;1.10;;;0.80;;
38779;SDS011;29273;49.962;9.768;2023-06-05T03:47:03;0.85;;;0.70;;
38779;SDS011;29273;49.962;9.768;2023-06-05T03:49:30;1.25;;;0.75;;
38779;SDS011;29273;49.962;9.768;2023-06-05T03:51:55;0.70;;;0.63;;
38779;SDS011;29273;49.962;9.768;2023-06-05T03:54:27;1.35;;;0.90;;
38779;SDS011;29273;49.962;9.768;2023-06-05T03:56:57;0.90;;;0.77;;
38779;SDS011;29273;49.962;9.768;2023-06-05T03:59:25;1.23;;;0.73;;
38779;SDS011;29273;49.962;9.768;2023-06-05T04:01:57;0.82;;;0.80;;
38779;SDS011;29273;49.962;9.768;2023-06-05T04:04:23;1.10;;;0.75;;
38779;SDS011;29273;49.962;9.768;2023-06-05T04:06:51;0.88;;;0.80;;
38779;SDS011;29273;49.962;9.768;2023-06-05T04:09:19;1.00;;;0.70;;
38779;SDS011;29273;49.962;9.768;2023-06-05T04:11:45;0.77;;;0.60;;
38779;SDS011;29273;49.962;9.768;2023-06-05T04:14:11;1.25;;;0.75;;
38779;SDS011;29273;49.962;9.768;2023-06-05T04:16:38;0.90;;;0.70;;
38779;SDS011;29273;49.962;9.768;2023-06-05T04:19:05;1.00;;;0.80;;
38779;SDS011;29273;49.962;9.768;2023-06-05T04:21:32;1.10;;;0.73;;
38779;SDS011;29273;49.962;9.768;2023-06-05T04:23:59;1.75;;;0.73;;
38779;SDS011;29273;49.962;9.768;2023-06-05T04:26:25;0.85;;;0.70;;
38779;SDS011;29273;49.962;9.768;2023-06-05T04:28:51;0.85;;;0.73;;
38779;SDS011;29273;49.962;9.768;2023-06-05T04:31:17;1.08;;;0.80;;
38779;SDS011;29273;49.962;9.768;2023-06-05T04:33:43;1.08;;;0.80;;
38779;SDS011;29273;49.962;9.768;2023-06-05T04:36:09;1.13;;;0.70;;
38779;SDS011;29273;49.962;9.768;2023-06-05T04:38:34;0.65;;;0.60;;
38779;SDS011;29273;49.962;9.768;2023-06-05T04:41:00;1.25;;;0.73;;
38779;SDS011;29273;49.962;9.768;2023-06-05T04:43:26;1.35;;;0.70;;
38779;SDS011;29273;49.962;9.768;2023-06-05T04:45:51;0.85;;;0.68;;
38779;SDS011;29273;49.962;9.768;2023-06-05T04:48:17;1.00;;;0.90;;
38779;SDS011;29273;49.962;9.768;2023-06-05T04:50:43;0.90;;;0.80;;
38779;SDS011;29273;49.962;9.768;2023-06-05T04:53:10;1.38;;;0.93;;
38779;SDS011;29273;49.962;9.768;2023-06-05T04:55:36;0.70;;;0.63;;
38779;SDS011;29273;49.962;9.768;2023-06-05T04:58:02;1.27;;;0.80;;
38779;SDS011;29273;49.962;9.768;2023-06-05T05:00:30;2.17;;;0.70;;
38779;SDS011;29273;49.962;9.768;2023-06-05T05:02:57;0.80;;;0.80;;
38779;SDS011;29273;49.962;9.768;2023-06-05T05:05:25;1.15;;;0.80;;
38779;SDS011;29273;49.962;9.768;2023-06-05T05:07:53;1.33;;;0.73;;
38779;SDS011;29273;49.962;9.768;2023-06-05T05:10:20;1.48;;;0.85;;
38779;SDS011;29273;49.962;9.768;2023-06-05T05:12:45;0.80;;;0.73;;
38779;SDS011;29273;49.962;9.768;2023-06-05T05:15:13;0.95;;;0.73;;
38779;SDS011;29273;49.962;9.768;2023-06-05T05:17:38;1.63;;;0.88;;
38779;SDS011;29273;49.962;9.768;2023-06-05T05:20:04;1.00;;;0.90;;
38779;SDS011;29273;49.962;9.768;2023-06-05T05:22:32;0.93;;;0.70;;
38779;SDS011;29273;49.962;9.768;2023-06-05T05:24:58;1.20;;;0.73;;
38779;SDS011;29273;49.962;9.768;2023-06-05T05:27:24;1.15;;;0.70;;
38779;SDS011;29273;49.962;9.768;2023-06-05T05:29:50;3.38;;;0.75;;
38779;SDS011;29273;49.962;9.768;2023-06-05T05:32:16;1.25;;;0.90;;
38779;SDS011;29273;49.962;9.768;2023-06-05T05:34:42;1.40;;;0.80;;
38779;SDS011;29273;49.962;9.768;2023-06-05T05:37:08;1.35;;;1.00;;
38779;SDS011;29273;49.962;9.768;2023-06-05T05:39:34;1.40;;;0.98;;
38779;SDS011;29273;49.962;9.768;2023-06-05T05:41:59;1.50;;;1.00;;
38779;SDS011;29273;49.962;9.768;2023-06-05T05:44:26;3.28;;;0.98;;
38779;SDS011;29273;49.962;9.768;2023-06-05T05:46:52;1.15;;;0.88;;
38779;SDS011;29273;49.962;9.768;2023-06-05T05:49:17;1.23;;;0.70;;
38779;SDS011;29273;49.962;9.768;2023-06-05T05:51:43;2.17;;;1.00;;
38779;SDS011;29273;49.962;9.768;2023-06-05T05:54:08;2.05;;;1.00;;
38779;SDS011;29273;49.962;9.768;2023-06-05T05:56:34;5.80;;;1.20;;
38779;SDS011;29273;49.962;9.768;2023-06-05T05:59:02;7.65;;;1.33;;
38779;SDS011;29273;49.962;9.768;2023-06-05T06:01:28;2.47;;;1.08;;
38779;SDS011;29273;49.962;9.768;2023-06-05T06:03:53;3.38;;;1.15;;
38779;SDS011;29273;49.962;9.768;2023-06-05T06:06:19;10.20;;;1.00;;
38779;SDS011;29273;49.962;9.768;2023-06-05T06:08:45;2.38;;;1.10;;
38779;SDS011;29273;49.962;9.768;2023-06-05T06:11:12;2.83;;;1.50;;
38779;SDS011;29273;49.962;9.768;2023-06-05T06:13:38;2.75;;;1.27;;
38779;SDS011;29273;49.962;9.768;2023-06-05T06:16:03;2.55;;;1.08;;
38779;SDS011;29273;49.962;9.768;2023-06-05T06:18:29;1.88;;;1.00;;
38779;SDS011;29273;49.962;9.768;2023-06-05T06:20:54;1.70;;;0.93;;
38779;SDS011;29273;49.962;9.768;2023-06-05T06:23:20;2.08;;;0.90;;
38779;SDS011;29273;49.962;9.768;2023-06-05T06:25:46;1.00;;;0.73;;
38779;SDS011;29273;49.962;9.768;2023-06-05T06:28:11;1.20;;;0.93;;
38779;SDS011;29273;49.962;9.768;2023-06-05T06:30:37;1.23;;;0.85;;
38779;SDS011;29273;49.962;9.768;2023-06-05T06:33:02;1.38;;;0.80;;
38779;SDS011;29273;49.962;9.768;2023-06-05T06:35:29;1.38;;;0.90;;
38779;SDS011;29273;49.962;9.768;2023-06-05T06:37:56;2.28;;;1.00;;
38779;SDS011;29273;49.962;9.768;2023-06-05T06:40:22;1.05;;;0.82;;
38779;SDS011;29273;49.962;9.768;2023-06-05T06:42:48;1.45;;;0.60;;
38779;SDS011;29273;49.962;9.768;2023-06-05T06:45:34;0.88;;;0.68;;
38779;SDS011;29273;49.962;9.768;2023-06-05T06:47:59;1.35;;;0.75;;
38779;SDS011;29273;49.962;9.768;2023-06-05T06:50:25;1.58;;;0.85;;
38779;SDS011;29273;49.962;9.768;2023-06-05T06:52:51;1.08;;;0.68;;
38779;SDS011;29273;49.962;9.768;2023-06-05T06:55:17;0.50;;;0.50;;
38779;SDS011;29273;49.962;9.768;2023-06-05T06:57:42;1.27;;;0.90;;
38779;SDS011;29273;49.962;9.768;2023-06-05T07:00:08;1.00;;;0.85;;
38779;SDS011;29273;49.962;9.768;2023-06-05T07:02:35;3.10;;;0.90;;
38779;SDS011;29273;49.962;9.768;2023-06-05T07:05:02;1.55;;;0.80;;
38779;SDS011;29273;49.962;9.768;2023-06-05T07:07:28;0.90;;;0.70;;
38779;SDS011;29273;49.962;9.768;2023-06-05T07:09:54;1.33;;;0.85;;
38779;SDS011;29273;49.962;9.768;2023-06-05T07:12:22;1.10;;;0.80;;
38779;SDS011;29273;49.962;9.768;2023-06-05T07:14:48;2.67;;;0.70;;
38779;SDS011;29273;49.962;9.768;2023-06-05T07:17:13;2.30;;;0.70;;
38779;SDS011;29273;49.962;9.768;2023-06-05T07:19:39;1.45;;;0.80;;
38779;SDS011;29273;49.962;9.768;2023-06-05T07:22:05;0.95;;;0.70;;
38779;SDS011;29273;49.962;9.768;2023-06-05T07:24:31;0.68;;;0.68;;
38779;SDS011;29273;49.962;9.768;2023-06-05T07:26:58;0.98;;;0.60;;
38779;SDS011;29273;49.962;9.768;2023-06-05T07:29:25;0.95;;;0.90;;
38779;SDS011;29273;49.962;9.768;2023-06-05T07:31:52;0.73;;;0.70;;
38779;SDS011;29273;49.962;9.768;2023-06-05T07:34:19;1.27;;;0.70;;
38779;SDS011;29273;49.962;9.768;2023-06-05T07:36:46;0.85;;;0.68;;
38779;SDS011;29273;49.962;9.768;2023-06-05T07:39:16;1.55;;;0.70;;
38779;SDS011;29273;49.962;9.768;2023-06-05T07:41:42;0.52;;;0.52;;
38779;SDS011;29273;49.962;9.768;2023-06-05T07:44:11;1.38;;;0.70;;
38779;SDS011;29273;49.962;9.768;2023-06-05T07:46:44;0.60;;;0.60;;
38779;SDS011;29273;49.962;9.768;2023-06-05T07:49:11;0.50;;;0.50;;
38779;SDS011;29273;49.962;9.768;2023-06-05T07:51:36;0.93;;;0.80;;
38779;SDS011;29273;49.962;9.768;2023-06-05T07:54:06;3.83;;;0.90;;
38779;SDS011;29273;49.962;9.768;2023-06-05T07:56:32;0.80;;;0.80;;
38779;SDS011;29273;49.962;9.768;2023-06-05T07:58:59;1.38;;;0.77;;
38779;SDS011;29273;49.962;9.768;2023-06-05T08:01:25;1.20;;;0.80;;
38779;SDS011;29273;49.962;9.768;2023-06-05T08:03:51;1.67;;;0.70;;
38779;SDS011;29273;49.962;9.768;2023-06-05T08:06:16;0.90;;;0.70;;
38779;SDS011;29273;49.962;9.768;2023-06-05T08:08:42;2.15;;;0.80;;
38779;SDS011;29273;49.962;9.768;2023-06-05T08:11:08;0.80;;;0.73;;
38779;SDS011;29273;49.962;9.768;2023-06-05T08:13:34;0.98;;;0.70;;
38779;SDS011;29273;49.962;9.768;2023-06-05T08:16:01;0.88;;;0.65;;
38779;SDS011;29273;49.962;9.768;2023-06-05T08:18:27;2.47;;;0.95;;
38779;SDS011;29273;49.962;9.768;2023-06-05T08:20:53;1.30;;;0.65;;
38779;SDS011;29273;49.962;9.768;2023-06-05T08:23:18;0.90;;;0.55;;
38779;SDS011;29273;49.962;9.768;2023-06-05T08:25:44;0.88;;;0.80;;
38779;SDS011;29273;49.962;9.768;2023-06-05T08:28:09;1.13;;;0.70;;
38779;SDS011;29273;49.962;9.768;2023-06-05T08:30:35;0.70;;;0.60;;
38779;SDS011;29273;49.962;9.768;2023-06-05T08:33:00;0.95;;;0.68;;
38779;SDS011;29273;49.962;9.768;2023-06-05T08:35:26;0.50;;;0.50;;
38779;SDS011;29273;49.962;9.768;2023-06-05T08:37:51;0.65;;;0.60;;
38779;SDS011;29273;49.962;9.768;2023-06-05T08:40:18;0.93;;;0.70;;
38779;SDS011;29273;49.962;9.768;2023-06-05T08:42:43;1.30;;;0.63;;
38779;SDS011;29273;49.962;9.768;2023-06-05T08:45:09;0.82;;;0.73;;
38779;SDS011;29273;49.962;9.768;2023-06-05T08:47:37;2.10;;;0.70;;
38779;SDS011;29273;49.962;9.768;2023-06-05T08:50:04;0.80;;;0.63;;
38779;SDS011;29273;49.962;9.768;2023-06-05T08:52:37;1.80;;;0.80;;
38779;SDS011;29273;49.962;9.768;2023-06-05T08:55:05;0.93;;;0.77;;
38779;SDS011;29273;49.962;9.768;2023-06-05T08:57:34;1.25;;;0.75;;
38779;SDS011;29273;49.962;9.768;2023-06-05T09:00:03;0.73;;;0.73;;
38779;SDS011;29273;49.962;9.768;2023-06-05T09:02:40;1.88;;;0.70;;
38779;SDS011;29273;49.962;9.768;2023-06-05T09:05:08;1.15;;;0.63;;
38779;SDS011;29273;49.962;9.768;2023-06-05T09:07:35;1.00;;;0.70;;
38779;SDS011;29273;49.962;9.768;2023-06-05T09:10:02;0.80;;;0.60;;
38779;SDS011;29273;49.962;9.768;2023-06-05T09:12:28;0.85;;;0.70;;
38779;SDS011;29273;49.962;9.768;2023-06-05T09:14:53;0.50;;;0.50;;
38779;SDS011;29273;49.962;9.768;2023-06-05T09:17:20;0.70;;;0.63;;
38779;SDS011;29273;49.962;9.768;2023-06-05T09:19:47;1.20;;;0.80;;
38779;SDS011;29273;49.962;9.768;2023-06-05T09:22:13;0.75;;;0.60;;
38779;SDS011;29273;49.962;9.768;2023-06-05T09:24:40;0.93;;;0.73;;
38779;SDS011;29273;49.962;9.768;2023-06-05T09:27:06;0.75;;;0.73;;
38779;SDS011;29273;49.962;9.768;2023-06-05T09:29:34;0.80;;;0.80;;
38779;SDS011;29273;49.962;9.768;2023-06-05T09:32:07;0.80;;;0.80;;
38779;SDS011;29273;49.962;9.768;2023-06-05T09:34:38;1.38;;;1.08;;
38779;SDS011;29273;49.962;9.768;2023-06-05T09:37:05;1.02;;;0.90;;
38779;SDS011;29273;49.962;9.768;2023-06-05T09:39:35;1.35;;;0.77;;
38779;SDS011;29273;49.962;9.768;2023-06-05T09:42:03;1.70;;;1.08;;
38779;SDS011;29273;49.962;9.768;2023-06-05T09:44:29;1.33;;;0.98;;
38779;SDS011;29273;49.962;9.768;2023-06-05T09:46:56;0.75;;;0.70;;
38779;SDS011;29273;49.962;9.768;2023-06-05T09:49:26;0.93;;;0.82;;
38779;SDS011;29273;49.962;9.768;2023-06-05T09:51:52;1.73;;;1.23;;
38779;SDS011;29273;49.962;9.768;2023-06-05T09:54:17;0.90;;;0.73;;
38779;SDS011;29273;49.962;9.768;2023-06-05T09:56:46;0.73;;;0.70;;
38779;SDS011;29273;49.962;9.768;2023-06-05T09:59:20;3.33;;;0.80;;
38779;SDS011;29273;49.962;9.768;2023-06-05T10:01:50;1.05;;;0.75;;
38779;SDS011;29273;49.962;9.768;2023-06-05T10:04:25;0.60;;;0.60;;
38779;SDS011;29273;49.962;9.768;2023-06-05T10:06:53;1.20;;;0.77;;
38779;SDS011;29273;49.962;9.768;2023-06-05T10:09:23;0.90;;;0.77;;
38779;SDS011;29273;49.962;9.768;2023-06-05T10:11:50;1.92;;;0.98;;
38779;SDS011;29273;49.962;9.768;2023-06-05T10:14:17;1.02;;;0.70;;
38779;SDS011;29273;49.962;9.768;2023-06-05T10:16:43;1.20;;;0.80;;
38779;SDS011;29273;49.962;9.768;2023-06-05T10:19:13;1.40;;;1.05;;
38779;SDS011;29273;49.962;9.768;2023-06-05T10:21:40;0.70;;;0.70;;
38779;SDS011;29273;49.962;9.768;2023-06-05T10:24:09;1.00;;;0.73;;
38779;SDS011;29273;49.962;9.768;2023-06-05T10:32:19;0.80;;;0.70;;
38779;SDS011;29273;49.962;9.768;2023-06-05T10:34:48;0.90;;;0.80;;
38779;SDS011;29273;49.962;9.768;2023-06-05T10:40:21;1.13;;;0.80;;
38779;SDS011;29273;49.962;9.768;2023-06-05T10:42:49;0.75;;;0.60;;
38779;SDS011;29273;49.962;9.768;2023-06-05T10:45:29;1.63;;;0.80;;
38779;SDS011;29273;49.962;9.768;2023-06-05T10:47:56;1.95;;;0.90;;
38779;SDS011;29273;49.962;9.768;2023-06-05T10:50:22;1.10;;;0.77;;
38779;SDS011;29273;49.962;9.768;2023-06-05T10:52:50;1.13;;;0.85;;
38779;SDS011;29273;49.962;9.768;2023-06-05T10:55:17;1.95;;;0.88;;
38779;SDS011;29273;49.962;9.768;2023-06-05T11:00:30;0.70;;;0.70;;
38779;SDS011;29273;49.962;9.768;2023-06-05T11:02:56;0.80;;;0.65;;
38779;SDS011;29273;49.962;9.768;2023-06-05T11:05:22;1.17;;;0.90;;
38779;SDS011;29273;49.962;9.768;2023-06-05T11:08:10;1.70;;;0.90;;
38779;SDS011;29273;49.962;9.768;2023-06-05T11:10:55;0.98;;;0.73;;
38779;SDS011;29273;49.962;9.768;2023-06-05T11:16:26;0.70;;;0.70;;
38779;SDS011;29273;49.962;9.768;2023-06-05T11:24:31;0.88;;;0.82;;
38779;SDS011;29273;49.962;9.768;2023-06-05T11:26:57;1.40;;;1.10;;
38779;SDS011;29273;49.962;9.768;2023-06-05T11:29:23;1.45;;;0.90;;
38779;SDS011;29273;49.962;9.768;2023-06-05T11:31:51;0.98;;;0.80;;
38779;SDS011;29273;49.962;9.768;2023-06-05T11:34:17;1.08;;;0.98;;
38779;SDS011;29273;49.962;9.768;2023-06-05T11:36:43;1.27;;;1.08;;
38779;SDS011;29273;49.962;9.768;2023-06-05T11:39:10;1.08;;;0.80;;
38779;SDS011;29273;49.962;9.768;2023-06-05T11:41:42;0.98;;;0.82;;
38779;SDS011;29273;49.962;9.768;2023-06-05T11:44:09;0.80;;;0.80;;
38779;SDS011;29273;49.962;9.768;2023-06-05T11:46:41;0.98;;;0.70;;
38779;SDS011;29273;49.962;9.768;2023-06-05T11:49:27;1.00;;;0.90;;
38779;SDS011;29273;49.962;9.768;2023-06-05T11:51:54;1.15;;;0.90;;
38779;SDS011;29273;49.962;9.768;2023-06-05T11:54:27;1.20;;;0.80;;
38779;SDS011;29273;49.962;9.768;2023-06-05T11:56:57;0.77;;;0.70;;
38779;SDS011;29273;49.962;9.768;2023-06-05T11:59:33;0.88;;;0.77;;
38779;SDS011;29273;49.962;9.768;2023-06-05T12:02:00;1.38;;;1.00;;
38779;SDS011;29273;49.962;9.768;2023-06-05T12:04:28;1.00;;;0.90;;
38779;SDS011;29273;49.962;9.768;2023-06-05T12:06:53;1.17;;;0.90;;
38779;SDS011;29273;49.962;9.768;2023-06-05T12:09:20;1.75;;;0.88;;
38779;SDS011;29273;49.962;9.768;2023-06-05T12:11:46;0.88;;;0.80;;
38779;SDS011;29273;49.962;9.768;2023-06-05T12:14:13;1.08;;;0.90;;
38779;SDS011;29273;49.962;9.768;2023-06-05T12:16:53;1.48;;;0.90;;
38779;SDS011;29273;49.962;9.768;2023-06-05T12:19:19;1.23;;;0.85;;
38779;SDS011;29273;49.962;9.768;2023-06-05T12:21:45;1.77;;;1.00;;
38779;SDS011;29273;49.962;9.768;2023-06-05T12:24:12;1.33;;;1.17;;
38779;SDS011;29273;49.962;9.768;2023-06-05T12:26:54;1.20;;;0.70;;
38779;SDS011;29273;49.962;9.768;2023-06-05T12:31:51;1.27;;;0.80;;
38779;SDS011;29273;49.962;9.768;2023-06-05T12:34:17;1.27;;;0.98;;
38779;SDS011;29273;49.962;9.768;2023-06-05T12:36:43;1.23;;;0.88;;
38779;SDS011;29273;49.962;9.768;2023-06-05T12:39:10;0.90;;;0.70;;
38779;SDS011;29273;49.962;9.768;2023-06-05T12:41:37;1.73;;;0.88;;
38779;SDS011;29273;49.962;9.768;2023-06-05T12:44:04;0.88;;;0.73;;
38779;SDS011;29273;49.962;9.768;2023-06-05T12:46:31;1.00;;;0.85;;
38779;SDS011;29273;49.962;9.768;2023-06-05T12:48:57;1.20;;;1.00;;
38779;SDS011;29273;49.962;9.768;2023-06-05T12:51:24;1.52;;;0.70;;
38779;SDS011;29273;49.962;9.768;2023-06-05T12:53:53;0.90;;;0.80;;
38779;SDS011;29273;49.962;9.768;2023-06-05T12:56:22;1.45;;;0.82;;
38779;SDS011;29273;49.962;9.768;2023-06-05T12:58:55;1.20;;;1.02;;
38779;SDS011;29273;49.962;9.768;2023-06-05T13:01:22;1.52;;;1.10;;
38779;SDS011;29273;49.962;9.768;2023-06-05T13:03:49;1.00;;;0.90;;
38779;SDS011;29273;49.962;9.768;2023-06-05T13:06:14;0.80;;;0.80;;
38779;SDS011;29273;49.962;9.768;2023-06-05T13:08:40;0.70;;;0.70;;
38779;SDS011;29273;49.962;9.768;2023-06-05T13:11:05;0.88;;;0.77;;
38779;SDS011;29273;49.962;9.768;2023-06-05T13:13:31;0.90;;;0.75;;
38779;SDS011;29273;49.962;9.768;2023-06-05T13:15:58;0.95;;;0.80;;
38779;SDS011;29273;49.962;9.768;2023-06-05T13:18:29;1.10;;;0.90;;
38779;SDS011;29273;49.962;9.768;2023-06-05T13:20:55;0.65;;;0.60;;
38779;SDS011;29273;49.962;9.768;2023-06-05T13:23:20;1.02;;;0.90;;
38779;SDS011;29273;49.962;9.768;2023-06-05T13:25:46;2.08;;;1.15;;
38779;SDS011;29273;49.962;9.768;2023-06-05T13:28:11;1.00;;;0.90;;
38779;SDS011;29273;49.962;9.768;2023-06-05T13:30:37;1.10;;;0.88;;
38779;SDS011;29273;49.962;9.768;2023-06-05T13:33:02;0.85;;;0.80;;
38779;SDS011;29273;49.962;9.768;2023-06-05T13:35:28;0.98;;;0.80;;
38779;SDS011;29273;49.962;9.768;2023-06-05T13:37:53;1.63;;;1.02;;
38779;SDS011;29273;49.962;9.768;2023-06-05T13:40:19;0.93;;;0.93;;
38779;SDS011;29273;49.962;9.768;2023-06-05T13:42:44;0.85;;;0.80;;
38779;SDS011;29273;49.962;9.768;2023-06-05T13:45:10;1.10;;;1.00;;
38779;SDS011;29273;49.962;9.768;2023-06-05T13:47:36;1.48;;;0.98;;
38779;SDS011;29273;49.962;9.768;2023-06-05T13:50:02;1.00;;;0.90;;
38779;SDS011;29273;49.962;9.768;2023-06-05T13:52:29;1.00;;;0.90;;
38779;SDS011;29273;49.962;9.768;2023-06-05T13:54:54;0.80;;;0.77;;
38779;SDS011;29273;49.962;9.768;2023-06-05T13:57:19;0.90;;;0.90;;
38779;SDS011;29273;49.962;9.768;2023-06-05T13:59:45;0.80;;;0.80;;
38779;SDS011;29273;49.962;9.768;2023-06-05T14:02:11;0.85;;;0.80;;
38779;SDS011;29273;49.962;9.768;2023-06-05T14:04:37;0.82;;;0.80;;
38779;SDS011;29273;49.962;9.768;2023-06-05T14:07:03;1.00;;;0.77;;
38779;SDS011;29273;49.962;9.768;2023-06-05T14:09:29;0.93;;;0.90;;
38779;SDS011;29273;49.962;9.768;2023-06-05T14:11:55;1.10;;;0.90;;
38779;SDS011;29273;49.962;9.768;2023-06-05T14:14:22;1.63;;;1.08;;
38779;SDS011;29273;49.962;9.768;2023-06-05T14:16:49;1.00;;;0.90;;
38779;SDS011;29273;49.962;9.768;2023-06-05T14:19:15;2.67;;;1.17;;
38779;SDS011;29273;49.962;9.768;2023-06-05T14:21:40;1.40;;;1.30;;
38779;SDS011;29273;49.962;9.768;2023-06-05T14:24:07;1.73;;;0.90;;
38779;SDS011;29273;49.962;9.768;2023-06-05T14:26:33;1.85;;;1.35;;
38779;SDS011;29273;49.962;9.768;2023-06-05T14:28:58;2.35;;;1.58;;
38779;SDS011;29273;49.962;9.768;2023-06-05T14:31:24;1.20;;;1.10;;
38779;SDS011;29273;49.962;9.768;2023-06-05T14:33:50;1.05;;;0.95;;
38779;SDS011;29273;49.962;9.768;2023-06-05T14:36:16;1.08;;;0.93;;
38779;SDS011;29273;49.962;9.768;2023-06-05T14:38:42;1.30;;;1.13;;
38779;SDS011;29273;49.962;9.768;2023-06-05T14:41:07;1.50;;;0.98;;
38779;SDS011;29273;49.962;9.768;2023-06-05T14:43:33;1.10;;;1.00;;
38779;SDS011;29273;49.962;9.768;2023-06-05T14:45:58;1.50;;;1.40;;
38779;SDS011;29273;49.962;9.768;2023-06-05T14:48:25;1.73;;;1.35;;
38779;SDS011;29273;49.962;9.768;2023-06-05T14:50:51;1.30;;;1.20;;
38779;SDS011;29273;49.962;9.768;2023-06-05T14:53:18;1.00;;;0.90;;
38779;SDS011;29273;49.962;9.768;2023-06-05T14:55:44;1.10;;;1.00;;
38779;SDS011;29273;49.962;9.768;2023-06-05T14:58:10;2.28;;;1.50;;
38779;SDS011;29273;49.962;9.768;2023-06-05T15:00:36;1.45;;;1.33;;
38779;SDS011;29273;49.962;9.768;2023-06-05T15:03:02;1.42;;;1.00;;
38779;SDS011;29273;49.962;9.768;2023-06-05T15:05:28;1.25;;;1.15;;
38779;SDS011;29273;49.962;9.768;2023-06-05T15:07:53;2.65;;;1.20;;
38779;SDS011;29273;49.962;9.768;2023-06-05T15:10:19;1.25;;;1.15;;
38779;SDS011;29273;49.962;9.768;2023-06-05T15:12:45;1.35;;;1.25;;